createdAt,value
2023-02-23T00:01:37.606Z,19.87
2023-02-23T00:04:05.025Z,19.62
2023-02-23T00:06:34.173Z,19.59
2023-02-23T00:09:01.168Z,19.69
2023-02-23T00:11:28.501Z,19.74
2023-02-23T00:13:56.776Z,19.70
2023-02-23T00:16:26.162Z,19.79
2023-02-23T00:19:00.280Z,19.54
2023-02-23T00:21:34.604Z,19.88
2023-02-23T00:24:15.040Z,19.93
2023-02-23T00:26:42.635Z,20.33
2023-02-23T00:29:16.571Z,20.13
2023-02-23T00:31:47.261Z,20.42
2023-02-23T00:34:16.111Z,20.58
2023-02-23T00:36:43.083Z,20.35
2023-02-23T00:39:32.420Z,20.05
2023-02-23T00:42:03.884Z,20.20
2023-02-23T00:44:33.597Z,20.58
2023-02-23T00:47:01.348Z,20.42
2023-02-23T00:49:28.037Z,20.48
2023-02-23T00:51:54.541Z,20.35
2023-02-23T00:54:21.863Z,20.18
2023-02-23T00:56:48.758Z,20.36
2023-02-23T00:59:15.891Z,20.37
2023-02-23T01:01:43.533Z,20.34
2023-02-23T01:04:11.764Z,20.18
2023-02-23T01:06:39.616Z,20.08
2023-02-23T01:09:14.188Z,19.98
2023-02-23T01:11:41.484Z,20.16
2023-02-23T01:14:10.852Z,19.90
2023-02-23T01:16:38.742Z,20.18
2023-02-23T01:19:06.488Z,20.03
2023-02-23T01:21:36.543Z,20.15
2023-02-23T01:24:04.296Z,20.09
2023-02-23T01:26:37.315Z,20.12
2023-02-23T01:29:08.675Z,20.08
2023-02-23T01:31:37.659Z,20.08
2023-02-23T01:34:05.847Z,19.98
2023-02-23T01:36:37.231Z,20.12
2023-02-23T01:39:07.624Z,19.82
2023-02-23T01:41:36.469Z,19.91
2023-02-23T01:44:06.568Z,19.72
2023-02-23T01:46:41.215Z,19.57
2023-02-23T01:49:22.406Z,19.31
2023-02-23T01:51:55.578Z,19.34
2023-02-23T01:54:28.934Z,19.24
2023-02-23T01:56:58.548Z,18.93
2023-02-23T01:59:49.081Z,19.02
2023-02-23T02:02:21.465Z,19.10
2023-02-23T02:04:52.210Z,18.89
2023-02-23T02:07:26.594Z,18.76
2023-02-23T02:10:10.817Z,18.71
2023-02-23T02:12:39.320Z,18.67
2023-02-23T02:15:09.380Z,18.51
2023-02-23T02:17:42.759Z,18.38
2023-02-23T02:20:26.437Z,18.19
2023-02-23T02:23:11.328Z,18.24
2023-02-23T02:25:49.998Z,18.15
2023-02-23T02:33:31.932Z,18.11
2023-02-23T02:36:36.291Z,17.99
2023-02-23T02:39:22.742Z,17.94
2023-02-23T02:42:15.957Z,18.15
2023-02-23T02:44:50.383Z,18.21
2023-02-23T02:47:25.441Z,18.14
2023-02-23T02:49:59.124Z,18.17
2023-02-23T02:52:44.822Z,18.29
2023-02-23T02:55:17.282Z,18.39
2023-02-23T02:57:46.745Z,18.39
2023-02-23T03:00:49.285Z,18.54
2023-02-23T03:03:46.699Z,18.67
2023-02-23T03:06:32.942Z,18.51
2023-02-23T03:09:35.524Z,18.39
2023-02-23T03:12:42.878Z,18.47
2023-02-23T03:15:36.382Z,18.31
2023-02-23T03:18:31.133Z,18.44
2023-02-23T03:21:26.452Z,18.03
2023-02-23T03:24:28.492Z,17.93
2023-02-23T03:27:23.263Z,17.74
2023-02-23T03:30:18.728Z,17.68
2023-02-23T03:33:14.830Z,17.81
2023-02-23T03:36:29.756Z,17.80
2023-02-23T03:39:19.853Z,17.84
2023-02-23T03:42:08.923Z,17.76
2023-02-23T03:44:59.663Z,17.93
2023-02-23T03:47:50.498Z,17.63
2023-02-23T03:50:51.975Z,17.64
2023-02-23T03:53:43.990Z,17.67
2023-02-23T03:56:31.717Z,17.76
2023-02-23T03:59:19.887Z,17.76
2023-02-23T04:02:07.172Z,17.56
2023-02-23T04:04:54.307Z,17.61
2023-02-23T04:07:40.188Z,17.59
2023-02-23T04:10:26.452Z,17.66
2023-02-23T04:13:16.705Z,17.57
2023-02-23T04:15:49.183Z,17.58
2023-02-23T04:18:20.578Z,17.43
2023-02-23T04:20:47.155Z,17.51
2023-02-23T04:23:13.807Z,17.48
2023-02-23T04:25:40.419Z,17.42
2023-02-23T04:28:07.986Z,17.94
2023-02-23T04:30:34.555Z,17.71
2023-02-23T04:33:01.129Z,17.57
2023-02-23T04:35:29.757Z,17.28
2023-02-23T04:37:57.015Z,17.33
2023-02-23T04:40:24.412Z,17.38
2023-02-23T04:42:51.831Z,17.37
2023-02-23T04:45:18.750Z,17.55
2023-02-23T04:47:45.423Z,17.48
2023-02-23T04:50:13.054Z,17.68
2023-02-23T04:52:39.788Z,17.56
2023-02-23T04:55:07.214Z,17.73
2023-02-23T04:57:35.061Z,17.75
2023-02-23T05:00:04.400Z,17.71
2023-02-23T05:02:31.950Z,17.74
2023-02-23T05:04:58.715Z,17.70
2023-02-23T05:07:25.556Z,17.77
2023-02-23T05:09:52.090Z,17.88
2023-02-23T05:12:18.730Z,17.98
2023-02-23T05:14:45.290Z,18.09
2023-02-23T05:17:12.065Z,17.79
2023-02-23T05:19:38.921Z,17.76
2023-02-23T05:22:05.815Z,17.81
2023-02-23T05:24:32.685Z,17.88
2023-02-23T05:26:59.267Z,18.36
2023-02-23T05:29:25.839Z,18.46
2023-02-23T05:31:52.534Z,18.69
2023-02-23T05:34:19.212Z,18.68
2023-02-23T05:36:45.826Z,18.94
2023-02-23T05:39:12.572Z,18.63
2023-02-23T05:41:39.194Z,18.70
2023-02-23T05:44:05.770Z,18.48
2023-02-23T05:46:32.445Z,18.60
2023-02-23T05:49:01.548Z,18.57
2023-02-23T05:51:30.581Z,18.40
2023-02-23T05:53:57.110Z,18.87
2023-02-23T05:56:25.182Z,19.10
2023-02-23T05:58:54.676Z,18.89
2023-02-23T06:01:22.477Z,18.83
2023-02-23T06:03:49.638Z,18.64
2023-02-23T06:06:17.128Z,18.07
2023-02-23T06:08:44.374Z,18.19
2023-02-23T06:11:11.691Z,18.38
2023-02-23T06:13:38.354Z,18.37
2023-02-23T06:16:05.427Z,18.23
2023-02-23T06:18:32.135Z,18.22
2023-02-23T06:21:00.980Z,18.28
2023-02-23T06:23:29.397Z,18.56
2023-02-23T06:25:56.306Z,18.25
2023-02-23T06:28:23.456Z,18.47
2023-02-23T06:30:53.162Z,18.36
2023-02-23T06:33:20.015Z,19.05
2023-02-23T06:35:46.549Z,18.94
2023-02-23T06:38:13.342Z,18.84
2023-02-23T06:40:40.042Z,18.62
2023-02-23T06:43:06.840Z,18.81
2023-02-23T06:45:33.431Z,18.94
2023-02-23T06:48:00.776Z,19.17
2023-02-23T06:50:29.393Z,19.10
2023-02-23T06:52:57.473Z,18.87
2023-02-23T06:55:24.422Z,19.57
2023-02-23T06:57:52.255Z,20.47
2023-02-23T07:00:19.412Z,20.70
2023-02-23T07:02:45.953Z,20.84
2023-02-23T07:05:12.549Z,19.13
2023-02-23T07:07:39.122Z,18.48
2023-02-23T07:10:06.786Z,18.26
2023-02-23T07:12:33.515Z,17.96
2023-02-23T07:15:00.146Z,17.96
2023-02-23T07:17:26.673Z,17.76
2023-02-23T07:19:53.346Z,17.82
2023-02-23T07:22:20.122Z,17.97
2023-02-23T07:24:46.888Z,17.97
2023-02-23T07:27:13.573Z,18.09
2023-02-23T07:29:40.257Z,17.96
2023-02-23T07:32:07.119Z,18.00
2023-02-23T07:34:33.726Z,17.96
2023-02-23T07:37:00.282Z,18.14
2023-02-23T07:39:27.121Z,18.31
2023-02-23T07:41:53.702Z,18.34
2023-02-23T07:44:20.296Z,18.39
2023-02-23T07:46:46.936Z,18.25
2023-02-23T07:49:13.879Z,18.44
2023-02-23T07:51:40.810Z,18.25
2023-02-23T07:54:07.415Z,18.02
2023-02-23T07:56:34.127Z,18.00
2023-02-23T07:59:01.852Z,18.03
2023-02-23T08:01:28.418Z,17.87
2023-02-23T08:03:55.115Z,17.94
2023-02-23T08:06:21.758Z,17.94
2023-02-23T08:08:48.287Z,18.07
2023-02-23T08:11:15.705Z,18.00
2023-02-23T08:13:42.388Z,18.02
2023-02-23T08:16:09.105Z,18.39
2023-02-23T08:18:38.751Z,18.56
2023-02-23T08:21:05.631Z,18.49
2023-02-23T08:23:33.772Z,18.39
2023-02-23T08:26:02.207Z,18.35
2023-02-23T08:28:29.867Z,18.43
2023-02-23T08:30:56.964Z,18.23
2023-02-23T08:33:23.867Z,18.39
2023-02-23T08:35:50.540Z,18.46
2023-02-23T08:38:18.167Z,18.13
2023-02-23T08:40:45.216Z,17.93
2023-02-23T08:43:11.915Z,17.98
2023-02-23T08:45:39.534Z,17.94
2023-02-23T08:48:07.522Z,18.07
2023-02-23T08:50:34.273Z,18.08
2023-02-23T08:53:00.971Z,17.93
2023-02-23T08:55:27.638Z,17.75
2023-02-23T08:57:54.434Z,17.76
2023-02-23T09:00:21.573Z,17.70
2023-02-23T09:02:48.312Z,17.67
2023-02-23T09:05:15.888Z,17.89
2023-02-23T09:07:45.137Z,17.98
2023-02-23T09:10:19.779Z,18.12
2023-02-23T09:12:46.497Z,17.91
2023-02-23T09:15:13.297Z,17.94
2023-02-23T09:17:42.723Z,17.75
2023-02-23T09:20:13.373Z,17.79
2023-02-23T09:22:41.874Z,17.65
2023-02-23T09:25:10.298Z,17.85
2023-02-23T09:27:36.946Z,17.89
2023-02-23T09:30:04.695Z,17.89
2023-02-23T09:32:31.531Z,17.95
2023-02-23T09:34:58.198Z,18.05
2023-02-23T09:37:25.054Z,17.95
2023-02-23T09:39:51.695Z,17.72
2023-02-23T09:42:40.393Z,17.80
2023-02-23T09:45:16.708Z,17.89
2023-02-23T09:48:03.178Z,17.90
2023-02-23T09:50:31.885Z,18.04
2023-02-23T09:53:25.090Z,18.05
2023-02-23T09:55:54.688Z,17.98
2023-02-23T09:58:24.859Z,17.91
2023-02-23T10:01:09.751Z,18.06
2023-02-23T10:03:41.445Z,18.18
2023-02-23T10:06:11.920Z,18.34
2023-02-23T10:08:55.164Z,18.30
2023-02-23T10:11:41.782Z,18.44
2023-02-23T10:14:33.548Z,18.33
2023-02-23T10:17:22.063Z,18.07
2023-02-23T10:20:13.543Z,18.05
2023-02-23T10:22:41.519Z,18.05
2023-02-23T10:25:13.628Z,18.14
2023-02-23T10:27:43.914Z,18.13
2023-02-23T10:30:32.315Z,18.39
2023-02-23T10:33:14.469Z,18.36
2023-02-23T10:35:41.043Z,18.33
2023-02-23T10:38:16.655Z,18.14
2023-02-23T10:40:46.369Z,18.16
2023-02-23T10:43:14.181Z,18.66
2023-02-23T10:45:47.811Z,18.71
2023-02-23T10:48:24.534Z,18.64
2023-02-23T10:50:54.974Z,18.44
2023-02-23T10:53:35.470Z,18.33
2023-02-23T10:56:05.323Z,18.17
2023-02-23T10:58:40.844Z,18.38
2023-02-23T11:01:08.798Z,18.34
2023-02-23T11:03:43.012Z,18.67
2023-02-23T11:06:30.258Z,18.66
2023-02-23T11:08:57.348Z,18.62
2023-02-23T11:11:29.061Z,18.66
2023-02-23T11:13:57.223Z,18.63
2023-02-23T11:16:30.243Z,18.77
2023-02-23T11:18:59.963Z,18.47
2023-02-23T11:21:33.766Z,18.61
2023-02-23T11:24:32.445Z,18.69
2023-02-23T11:27:06.588Z,18.89
2023-02-23T11:29:42.183Z,18.36
2023-02-23T11:32:15.282Z,17.78
2023-02-23T11:34:43.594Z,18.02
2023-02-23T11:37:14.337Z,18.33
2023-02-23T11:39:55.242Z,18.64
2023-02-23T11:42:27.307Z,18.83
2023-02-23T11:45:17.800Z,18.47
2023-02-23T11:47:49.381Z,18.31
2023-02-23T11:50:26.005Z,18.42
2023-02-23T11:53:06.606Z,18.39
2023-02-23T11:55:36.564Z,18.52
2023-02-23T11:58:19.446Z,18.67
2023-02-23T12:00:55.902Z,18.40
2023-02-23T12:03:25.771Z,18.41
2023-02-23T12:05:57.610Z,18.55
2023-02-23T12:08:45.322Z,18.51
2023-02-23T12:11:20.477Z,18.52
2023-02-23T12:13:53.357Z,18.28
2023-02-23T12:16:27.299Z,18.29
2023-02-23T12:19:05.849Z,18.39
2023-02-23T12:21:47.535Z,18.39
2023-02-23T12:24:38.980Z,18.55
2023-02-23T12:27:16.049Z,18.69
2023-02-23T12:30:09.438Z,18.46
2023-02-23T12:32:48.437Z,18.37
2023-02-23T12:35:26.765Z,18.20
2023-02-23T12:38:06.249Z,18.46
2023-02-23T12:40:37.977Z,18.52
2023-02-23T12:43:26.838Z,18.83
2023-02-23T12:46:02.699Z,18.78
2023-02-23T12:48:52.598Z,18.66
2023-02-23T12:51:34.798Z,18.77
2023-02-23T12:54:02.006Z,18.70
2023-02-23T12:56:50.488Z,18.69
2023-02-23T12:59:42.081Z,18.80
2023-02-23T13:02:41.092Z,18.78
2023-02-23T13:05:26.768Z,18.74
2023-02-23T13:08:12.819Z,18.78
2023-02-23T13:10:55.466Z,18.71
2023-02-23T13:13:38.116Z,18.87
2023-02-23T13:16:21.632Z,19.11
2023-02-23T13:18:51.192Z,18.44
2023-02-23T13:21:32.318Z,18.39
2023-02-23T13:24:18.969Z,18.45
2023-02-23T13:26:53.474Z,19.06
2023-02-23T13:29:48.709Z,18.46
2023-02-23T13:32:21.896Z,18.68
2023-02-23T13:34:54.492Z,18.58
2023-02-23T13:37:26.269Z,19.06
2023-02-23T13:40:02.368Z,19.15
2023-02-23T13:42:47.174Z,19.01
2023-02-23T13:45:20.415Z,18.72
2023-02-23T13:48:14.275Z,18.79
2023-02-23T13:50:59.586Z,18.85
2023-02-23T13:53:36.610Z,18.55
2023-02-23T13:56:08.208Z,18.63
2023-02-23T13:58:36.254Z,18.96
2023-02-23T14:01:16.219Z,19.15
2023-02-23T14:03:52.223Z,18.96
2023-02-23T14:06:20.826Z,18.80
2023-02-23T14:08:53.148Z,19.22
2023-02-23T14:11:38.631Z,19.46
2023-02-23T14:14:06.103Z,19.35
2023-02-23T14:16:32.690Z,19.06
2023-02-23T14:19:34.278Z,19.40
2023-02-23T14:22:06.450Z,19.36
2023-02-23T14:24:33.092Z,19.31
2023-02-23T14:27:34.248Z,19.46
2023-02-23T14:30:19.749Z,19.37
2023-02-23T14:32:48.699Z,19.54
2023-02-23T14:35:39.982Z,19.36
2023-02-23T14:38:11.848Z,19.15
2023-02-23T14:40:46.436Z,19.40
2023-02-23T14:43:31.846Z,19.32
2023-02-23T14:46:00.975Z,19.26
2023-02-23T14:48:27.639Z,19.13
2023-02-23T14:51:16.461Z,19.42
2023-02-23T14:53:43.381Z,19.33
2023-02-23T14:56:22.645Z,19.48
2023-02-23T14:58:55.466Z,19.35
2023-02-23T15:01:39.611Z,19.29
2023-02-23T15:04:08.327Z,19.39
2023-02-23T15:06:35.576Z,19.44
2023-02-23T15:09:02.541Z,19.72
2023-02-23T15:11:31.557Z,19.99
2023-02-23T15:13:59.143Z,20.04
2023-02-23T15:16:31.660Z,20.50
2023-02-23T15:19:00.789Z,21.01
2023-02-23T15:21:28.134Z,21.11
2023-02-23T15:24:06.222Z,21.23
2023-02-23T15:26:39.722Z,21.29
2023-02-23T15:29:33.436Z,21.75
2023-02-23T15:32:14.819Z,19.19
2023-02-23T15:34:42.489Z,18.72
2023-02-23T15:37:35.217Z,19.42
2023-02-23T15:40:12.146Z,20.22
2023-02-23T15:42:41.444Z,20.04
2023-02-23T15:45:20.097Z,19.92
2023-02-23T15:57:44.464Z,19.15
2023-02-23T16:00:19.620Z,19.47
2023-02-23T16:02:48.326Z,19.59
2023-02-23T16:05:20.746Z,19.58
2023-02-23T16:07:47.368Z,19.91
2023-02-23T16:10:26.769Z,20.05
2023-02-23T16:12:54.730Z,20.26
2023-02-23T16:15:32.838Z,20.36
2023-02-23T16:18:05.517Z,20.77
2023-02-23T16:20:46.509Z,20.72
2023-02-23T16:23:44.429Z,20.89
2023-02-23T16:26:24.011Z,20.29
2023-02-23T16:28:56.690Z,20.10
2023-02-23T16:31:28.173Z,20.58
2023-02-23T16:33:57.221Z,21.08
2023-02-23T16:36:33.169Z,21.35
2023-02-23T16:39:02.344Z,21.40
2023-02-23T16:41:32.160Z,19.92
2023-02-23T16:44:01.453Z,20.10
2023-02-23T16:46:56.833Z,20.56
2023-02-23T16:49:23.528Z,20.13
2023-02-23T16:51:51.297Z,19.36
2023-02-23T16:54:18.072Z,19.43
2023-02-23T16:56:47.299Z,19.28
2023-02-23T16:59:17.360Z,18.73
2023-02-23T17:01:49.782Z,19.15
2023-02-23T17:04:18.897Z,18.18
2023-02-23T17:06:47.155Z,18.31
2023-02-23T17:09:13.796Z,18.43
2023-02-23T17:11:41.405Z,18.10
2023-02-23T17:14:08.101Z,18.59
2023-02-23T17:16:34.718Z,18.80
2023-02-23T17:19:01.857Z,19.04
2023-02-23T17:21:28.408Z,18.52
2023-02-23T17:24:02.521Z,18.53
2023-02-23T17:26:29.301Z,18.85
2023-02-23T17:28:55.769Z,18.84
2023-02-23T17:31:25.605Z,18.20
2023-02-23T17:33:55.113Z,18.14
2023-02-23T17:36:23.768Z,18.54
2023-02-23T17:38:50.426Z,18.10
2023-02-23T17:41:19.869Z,18.70
2023-02-23T17:43:46.771Z,18.42
2023-02-23T17:46:13.831Z,19.05
2023-02-23T17:48:44.324Z,19.41
2023-02-23T17:51:12.591Z,18.68
2023-02-23T17:53:40.593Z,18.85
2023-02-23T17:56:08.346Z,18.82
2023-02-23T17:58:35.684Z,18.82
2023-02-23T18:01:04.554Z,18.57
2023-02-23T18:03:33.485Z,18.85
2023-02-23T18:06:12.310Z,18.95
2023-02-23T18:08:41.782Z,18.24
2023-02-23T18:11:09.080Z,18.23
2023-02-23T18:13:36.143Z,18.73
2023-02-23T18:16:09.237Z,18.20
2023-02-23T18:18:41.834Z,17.96
2023-02-23T18:21:15.301Z,18.43
2023-02-23T18:23:42.420Z,19.42
2023-02-23T18:26:15.031Z,18.16
2023-02-23T18:28:44.342Z,17.62
2023-02-23T18:31:22.783Z,17.94
2023-02-23T18:33:52.646Z,17.59
2023-02-23T18:36:22.275Z,17.76
2023-02-23T18:38:50.014Z,17.86
2023-02-23T18:41:17.296Z,17.98
2023-02-23T18:43:44.034Z,18.06
2023-02-23T18:46:12.501Z,18.27
2023-02-23T18:48:39.610Z,18.21
2023-02-23T18:51:07.354Z,18.16
2023-02-23T18:53:37.229Z,18.22
2023-02-23T18:56:09.230Z,18.13
2023-02-23T18:58:35.852Z,17.86
2023-02-23T19:01:02.762Z,17.68
2023-02-23T19:03:29.345Z,17.80
2023-02-23T19:05:56.025Z,18.04
2023-02-23T19:08:22.877Z,18.18
2023-02-23T19:10:49.600Z,18.28
2023-02-23T19:13:18.167Z,18.43
2023-02-23T19:15:44.918Z,18.35
2023-02-23T19:18:11.578Z,18.17
2023-02-23T19:20:38.085Z,18.25
2023-02-23T19:23:05.523Z,17.94
2023-02-23T19:25:32.441Z,17.72
2023-02-23T19:27:59.465Z,17.77
2023-02-23T19:30:26.043Z,17.84
2023-02-23T19:32:52.883Z,17.61
2023-02-23T19:35:20.238Z,17.61
2023-02-23T19:37:49.491Z,17.61
2023-02-23T19:40:23.875Z,17.77
2023-02-23T19:42:52.611Z,18.31
2023-02-23T19:45:19.646Z,18.10
2023-02-23T19:47:46.271Z,18.04
2023-02-23T19:50:16.724Z,18.14
2023-02-23T19:52:45.061Z,18.04
2023-02-23T19:55:11.871Z,18.18
2023-02-23T19:57:38.425Z,18.02
2023-02-23T20:00:11.475Z,18.07
2023-02-23T20:02:44.282Z,17.89
2023-02-23T20:05:15.942Z,17.99
2023-02-23T20:07:42.992Z,17.66
2023-02-23T20:10:13.718Z,17.68
2023-02-23T20:12:40.339Z,17.84
2023-02-23T20:15:08.041Z,17.64
2023-02-23T20:17:35.415Z,17.77
2023-02-23T20:20:02.834Z,17.48
2023-02-23T20:22:29.423Z,17.24
2023-02-23T20:24:56.762Z,17.18
2023-02-23T20:27:23.648Z,16.89
2023-02-23T20:29:53.492Z,17.18
2023-02-23T20:32:20.317Z,16.88
2023-02-23T20:34:48.924Z,16.60
2023-02-23T20:37:15.609Z,16.82
2023-02-23T20:39:42.132Z,17.09
2023-02-23T20:42:08.755Z,17.04
2023-02-23T20:44:35.516Z,17.24
2023-02-23T20:47:02.418Z,16.97
2023-02-23T20:49:29.569Z,17.07
2023-02-23T20:51:56.143Z,16.89
2023-02-23T20:54:22.944Z,16.38
2023-02-23T20:56:58.839Z,16.46
2023-02-23T20:59:29.630Z,16.33
2023-02-23T21:01:56.702Z,16.74
2023-02-23T21:04:23.340Z,16.86
2023-02-23T21:06:49.984Z,16.73
2023-02-23T21:09:19.088Z,16.46
2023-02-23T21:11:47.759Z,16.60
2023-02-23T21:14:15.444Z,16.38
2023-02-23T21:16:46.235Z,16.41
2023-02-23T21:19:14.538Z,16.63
2023-02-23T21:21:50.009Z,16.87
2023-02-23T21:24:18.370Z,17.43
2023-02-23T21:26:45.126Z,17.51
2023-02-23T21:29:14.788Z,17.24
2023-02-23T21:31:43.445Z,17.56
2023-02-23T21:34:11.014Z,17.38
2023-02-23T21:36:38.378Z,17.48
2023-02-23T21:39:06.306Z,17.65
2023-02-23T21:41:33.714Z,17.58
2023-02-23T21:44:01.698Z,17.17
2023-02-23T21:46:28.537Z,18.11
2023-02-23T21:48:55.554Z,17.78
2023-02-23T21:51:22.503Z,17.65
2023-02-23T21:53:49.336Z,17.46
2023-02-23T21:56:22.203Z,16.98
2023-02-23T21:58:51.148Z,17.09
2023-02-23T22:01:20.820Z,17.32
2023-02-23T22:03:47.808Z,17.05
2023-02-23T22:06:27.371Z,17.27
2023-02-23T22:08:54.851Z,17.17
2023-02-23T22:11:25.264Z,16.83
2023-02-23T22:14:00.485Z,16.83
2023-02-23T22:16:33.747Z,17.01
2023-02-23T22:19:04.107Z,16.71
2023-02-23T22:21:36.825Z,17.23
2023-02-23T22:24:05.393Z,16.89
2023-02-23T22:26:34.405Z,16.87
2023-02-23T22:29:01.350Z,16.97
2023-02-23T22:31:28.535Z,15.88
2023-02-23T22:33:55.434Z,15.67
2023-02-23T22:36:22.763Z,15.81
2023-02-23T22:38:49.602Z,16.16
2023-02-23T22:41:16.275Z,16.67
2023-02-23T22:43:45.963Z,16.43
2023-02-23T22:46:15.089Z,15.88
2023-02-23T22:48:46.607Z,15.88
2023-02-23T22:51:14.931Z,16.09
2023-02-23T22:53:41.928Z,16.06
2023-02-23T22:56:09.150Z,16.14
2023-02-23T22:58:36.340Z,16.28
2023-02-23T23:01:05.699Z,16.28
2023-02-23T23:03:42.099Z,16.18
2023-02-23T23:06:10.510Z,16.40
2023-02-23T23:08:42.217Z,16.54
2023-02-23T23:11:11.151Z,16.72
2023-02-23T23:13:44.642Z,16.40
2023-02-23T23:16:28.876Z,16.41
2023-02-23T23:19:11.808Z,16.49
2023-02-23T23:21:40.818Z,16.49
2023-02-23T23:24:09.060Z,16.47
2023-02-23T23:26:40.634Z,16.33
2023-02-23T23:29:10.055Z,16.31
2023-02-23T23:31:38.751Z,16.41
2023-02-23T23:34:11.236Z,16.54
2023-02-23T23:36:48.804Z,16.33
2023-02-23T23:39:20.779Z,16.24
2023-02-23T23:41:49.398Z,16.38
2023-02-23T23:44:18.755Z,16.64
2023-02-23T23:46:46.512Z,16.46
2023-02-23T23:49:19.039Z,16.32
2023-02-23T23:51:51.131Z,16.29
2023-02-23T23:54:21.340Z,16.59
2023-02-23T23:56:49.456Z,16.62
2023-02-23T23:59:21.176Z,16.51
